Time;durP1;ratioP1;P1;durP2;ratioP2;P2;SDS_P1;SDS_P2;PMS_P1;PMS_P2;Temp;Humidity;BMP_temperature;BMP_pressure;BME280_temperature;BME280_humidity;BME280_pressure;Samples;Min_cycle;Max_cycle;Signal;HPM_P1;HPM_P2
2022/07/19 00:01:22;;;;;;;9.90;5.47;;;;;;;17.76;80.32;101950.44;5091743;28;20032;-70
2022/07/19 00:03:47;;;;;;;9.40;5.35;;;;;;;17.74;80.48;101947.06;5093837;28;20082;-71
2022/07/19 00:06:13;;;;;;;7.43;5.40;;;;;;;17.71;80.12;101949.25;5092805;28;20089;-70
2022/07/19 00:08:38;;;;;;;7.05;5.30;;;;;;;17.66;80.79;101949.75;5093389;28;20032;-70
2022/07/19 00:11:03;;;;;;;8.23;4.82;;;;;;;17.65;80.84;101941.81;5091701;28;20504;-69
2022/07/19 00:13:29;;;;;;;9.95;4.85;;;;;;;17.63;80.29;101942.00;5092679;28;20075;-70
2022/07/19 00:15:54;;;;;;;5.72;4.32;;;;;;;17.60;80.36;101944.97;5093163;28;20037;-70
2022/07/19 00:18:20;;;;;;;7.50;4.38;;;;;;;17.59;80.50;101943.28;5092550;28;20032;-70
2022/07/19 00:20:45;;;;;;;8.20;4.38;;;;;;;17.57;80.55;101940.75;5092991;28;20503;-70
2022/07/19 00:23:10;;;;;;;9.27;4.80;;;;;;;17.58;81.78;101942.44;5092682;28;20490;-71
2022/07/19 00:25:36;;;;;;;7.80;5.10;;;;;;;17.56;83.03;101940.94;5093038;28;20042;-70
2022/07/19 00:28:01;;;;;;;7.10;4.78;;;;;;;17.53;83.74;101939.38;5092663;28;20122;-70
2022/07/19 00:30:26;;;;;;;6.55;4.82;;;;;;;17.50;82.79;101937.00;5092272;28;20117;-70
2022/07/19 00:32:52;;;;;;;6.90;4.75;;;;;;;17.46;83.00;101938.31;5091385;28;20146;-70
2022/07/19 00:35:17;;;;;;;7.47;4.70;;;;;;;17.42;82.92;101943.19;5092447;28;20135;-70
2022/07/19 00:37:43;;;;;;;8.15;4.60;;;;;;;17.39;83.37;101929.19;5092791;28;20032;-70
2022/07/19 00:40:09;;;;;;;7.22;5.50;;;;;;;17.37;85.08;101928.53;5092035;28;20369;-70
2022/07/19 00:42:34;;;;;;;9.43;5.07;;;;;;;17.34;84.45;101936.91;5092170;28;20103;-69
2022/07/19 00:45:00;;;;;;;7.65;5.00;;;;;;;17.29;84.03;101940.06;5092561;28;20078;-70
2022/07/19 00:47:25;;;;;;;6.53;4.75;;;;;;;17.26;83.77;101941.22;5091066;28;20036;-70
2022/07/19 00:49:51;;;;;;;6.65;4.95;;;;;;;17.22;83.98;101937.13;5091155;28;20413;-70
2022/07/19 00:52:20;;;;;;;8.25;6.03;;;;;;;17.19;85.52;101939.31;5092377;28;20031;-70
2022/07/19 00:54:46;;;;;;;6.97;5.10;;;;;;;17.15;84.46;101937.94;5092593;28;20034;-70
2022/07/19 00:57:14;;;;;;;6.15;4.93;;;;;;;17.12;85.09;101936.38;5091083;28;20397;-70
2022/07/19 00:59:43;;;;;;;6.97;4.90;;;;;;;17.09;85.58;101944.75;5092668;28;20031;-70
2022/07/19 01:02:11;;;;;;;6.60;5.40;;;;;;;17.04;85.49;101942.53;5092205;28;20038;-71
2022/07/19 01:04:37;;;;;;;7.22;4.55;;;;;;;17.01;85.77;101942.84;5091823;28;20470;-70
2022/07/19 01:07:03;;;;;;;7.38;5.35;;;;;;;17.00;86.12;101948.38;5092331;28;20476;-70
2022/07/19 01:09:28;;;;;;;6.97;5.20;;;;;;;16.96;86.04;101933.56;5091793;28;20052;-70
2022/07/19 01:11:55;;;;;;;6.15;4.78;;;;;;;16.91;86.75;101942.97;5092160;28;20552;-70
2022/07/19 01:14:21;;;;;;;9.48;6.35;;;;;;;16.89;87.53;101936.88;5091833;28;20497;-70
2022/07/19 01:16:46;;;;;;;13.10;6.65;;;;;;;16.87;88.79;101927.28;5092051;28;20032;-70
2022/07/19 01:19:13;;;;;;;7.28;5.70;;;;;;;16.83;87.99;101924.03;5092127;28;20032;-70
2022/07/19 01:21:39;;;;;;;7.18;5.50;;;;;;;16.81;88.41;101931.41;5091697;28;20089;-70
2022/07/19 01:24:05;;;;;;;9.50;5.53;;;;;;;16.78;88.31;101922.78;5091970;28;20036;-69
2022/07/19 01:26:30;;;;;;;7.68;5.40;;;;;;;16.76;89.61;101922.94;5091271;28;20165;-70
2022/07/19 01:28:56;;;;;;;12.85;6.50;;;;;;;16.73;90.72;101920.56;5091605;28;20032;-71
2022/07/19 01:31:21;;;;;;;8.07;5.88;;;;;;;16.70;90.09;101919.00;5091503;28;20496;-70
2022/07/19 01:33:46;;;;;;;9.48;6.07;;;;;;;16.67;89.75;101918.50;5091616;28;20032;-70
2022/07/19 01:36:13;;;;;;;9.70;6.65;;;;;;;16.65;90.55;101917.81;5091842;28;20036;-70
2022/07/19 01:38:39;;;;;;;7.18;6.05;;;;;;;16.64;91.74;101922.31;5091362;28;20028;-70
2022/07/19 01:41:06;;;;;;;11.25;5.90;;;;;;;16.63;91.39;101917.09;5091513;28;20474;-70
2022/07/19 01:43:32;;;;;;;14.70;7.40;;;;;;;16.63;92.61;101914.41;5091090;28;20097;-71
2022/07/19 01:45:58;;;;;;;6.63;5.45;;;;;;;16.59;92.60;101910.38;5091276;28;20468;-70
2022/07/19 01:48:24;;;;;;;7.03;5.65;;;;;;;16.57;91.60;101916.72;5091243;28;20032;-70
2022/07/19 01:50:50;;;;;;;5.60;5.05;;;;;;;16.54;91.43;101908.97;5091607;28;20039;-70
2022/07/19 01:53:15;;;;;;;6.97;5.40;;;;;;;16.51;91.33;101911.97;5090386;28;20452;-71
2022/07/19 01:55:41;;;;;;;7.63;5.43;;;;;;;16.50;92.18;101915.63;5091135;28;20426;-70
2022/07/19 01:58:06;;;;;;;7.28;5.30;;;;;;;16.48;92.09;101908.72;5091489;28;20031;-70
2022/07/19 02:00:31;;;;;;;11.10;7.10;;;;;;;16.48;93.22;101914.97;5089637;28;20024;-71
2022/07/19 02:02:57;;;;;;;15.10;6.80;;;;;;;16.45;94.03;101904.53;5091382;28;20024;-70
2022/07/19 02:05:22;;;;;;;11.73;7.38;;;;;;;16.42;94.65;101906.66;5091357;28;20430;-74
2022/07/19 02:07:48;;;;;;;9.38;6.45;;;;;;;16.38;93.40;101904.25;5091536;28;20032;-70
2022/07/19 02:10:14;;;;;;;6.68;5.60;;;;;;;16.35;93.83;101898.38;5091224;28;20105;-70
2022/07/19 02:12:39;;;;;;;7.15;6.30;;;;;;;16.33;94.56;101895.84;5090996;28;20063;-71
2022/07/19 02:15:06;;;;;;;7.10;6.00;;;;;;;16.30;93.82;101893.44;5091090;28;20140;-70
2022/07/19 02:17:32;;;;;;;10.43;6.60;;;;;;;16.28;95.86;101895.41;5090568;28;20042;-70
2022/07/19 02:19:57;;;;;;;10.32;6.53;;;;;;;16.26;94.69;101904.63;5091124;28;20114;-70
2022/07/19 02:22:23;;;;;;;8.93;6.35;;;;;;;16.20;94.88;101893.50;5091054;28;20448;-71
2022/07/19 02:24:48;;;;;;;8.38;6.20;;;;;;;16.19;94.65;101894.47;5090571;28;20040;-71
2022/07/19 02:27:13;;;;;;;9.45;6.35;;;;;;;16.17;94.45;101887.59;5090971;28;20093;-72
2022/07/19 02:29:39;;;;;;;9.07;6.18;;;;;;;16.15;95.43;101887.75;5089016;28;20039;-70
2022/07/19 02:32:05;;;;;;;8.18;6.68;;;;;;;16.14;95.59;101886.03;5090781;28;20028;-72
2022/07/19 02:34:31;;;;;;;8.18;5.80;;;;;;;16.15;95.50;101894.94;5090598;28;20072;-72
2022/07/19 02:36:56;;;;;;;9.35;6.45;;;;;;;16.11;95.06;101891.72;5090819;28;20490;-70
2022/07/19 02:39:22;;;;;;;9.48;7.20;;;;;;;16.11;95.44;101889.03;5090782;28;20047;-71
2022/07/19 02:41:47;;;;;;;8.82;6.57;;;;;;;16.11;96.03;101893.53;5090495;28;20051;-71
2022/07/19 02:44:12;;;;;;;11.57;5.63;;;;;;;16.09;95.89;101887.47;5090577;28;20066;-71
2022/07/19 02:46:38;;;;;;;8.25;5.80;;;;;;;16.06;95.58;101891.31;5090299;28;20036;-72
2022/07/19 02:49:03;;;;;;;8.77;5.43;;;;;;;16.05;95.95;101895.00;5090609;28;20089;-71
2022/07/19 02:51:28;;;;;;;8.35;6.25;;;;;;;16.03;96.03;101894.28;5090352;28;20028;-74
2022/07/19 02:53:54;;;;;;;9.00;5.43;;;;;;;16.01;96.11;101898.97;5090625;28;20028;-71
2022/07/19 02:56:19;;;;;;;11.45;7.35;;;;;;;15.99;96.48;101899.13;5090519;28;20093;-70
2022/07/19 02:58:44;;;;;;;12.68;8.88;;;;;;;15.99;98.26;101890.25;5088650;28;20042;-71
2022/07/19 03:01:10;;;;;;;15.80;9.23;;;;;;;15.97;98.50;101894.88;5090329;28;20060;-71
2022/07/19 03:03:44;;;;;;;9.98;7.68;;;;;;;15.93;98.23;101888.13;5090961;28;20040;-71
2022/07/19 03:06:11;;;;;;;13.85;7.63;;;;;;;15.90;97.92;101889.28;5094527;28;20032;-71
2022/07/19 03:08:37;;;;;;;10.88;6.88;;;;;;;15.88;97.60;101885.06;5093802;28;20032;-71
2022/07/19 03:11:02;;;;;;;9.88;6.63;;;;;;;15.85;97.84;101884.38;5094127;28;20142;-70
2022/07/19 03:13:28;;;;;;;8.15;6.15;;;;;;;15.83;97.43;101878.28;5094188;28;20032;-71
2022/07/19 03:15:54;;;;;;;8.13;7.07;;;;;;;15.82;98.36;101879.31;5092241;28;20028;-70
2022/07/19 03:18:19;;;;;;;9.40;6.53;;;;;;;15.80;97.80;101875.91;5094243;28;20515;-71
2022/07/19 03:20:45;;;;;;;7.55;5.53;;;;;;;15.78;97.43;101879.72;5092285;28;20072;-72
2022/07/19 03:23:10;;;;;;;12.38;7.07;;;;;;;15.76;97.95;101879.84;5094067;28;20489;-71
2022/07/19 03:25:35;;;;;;;10.80;6.22;;;;;;;15.77;98.87;101878.84;5092261;28;20032;-71
2022/07/19 03:28:01;;;;;;;7.10;5.72;;;;;;;15.74;98.50;101875.63;5093879;28;20129;-71
2022/07/19 03:30:26;;;;;;;9.20;6.00;;;;;;;15.72;98.15;101883.81;5093692;28;20038;-71
2022/07/19 03:32:52;;;;;;;8.02;5.85;;;;;;;15.70;98.24;101877.75;5093684;28;20130;-71
2022/07/19 03:35:19;;;;;;;11.52;7.35;;;;;;;15.68;98.44;101879.75;5092627;28;20040;-71
2022/07/19 03:37:45;;;;;;;8.60;6.50;;;;;;;15.67;99.12;101880.72;5093670;28;20143;-71
2022/07/19 03:40:11;;;;;;;9.25;7.07;;;;;;;15.64;98.79;101881.84;5093835;28;20532;-71
2022/07/19 03:42:36;;;;;;;8.82;7.20;;;;;;;15.63;99.67;101882.00;5093525;28;20040;-73
2022/07/19 03:45:02;;;;;;;10.00;7.95;;;;;;;15.62;99.81;101878.50;5093518;28;20066;-72
2022/07/19 03:47:27;;;;;;;10.38;7.15;;;;;;;15.60;99.51;101868.88;5092663;28;20032;-70
2022/07/19 03:49:53;;;;;;;13.85;7.43;;;;;;;15.58;99.01;101874.41;5093930;28;20395;-71
2022/07/19 03:52:18;;;;;;;9.35;6.85;;;;;;;15.58;98.85;101878.94;5093760;28;20039;-72
2022/07/19 03:54:43;;;;;;;10.95;7.68;;;;;;;15.57;98.89;101878.09;5093145;28;20032;-71
2022/07/19 03:57:09;;;;;;;10.48;6.80;;;;;;;15.58;99.25;101881.63;5092122;28;20044;-71
2022/07/19 03:59:34;;;;;;;11.10;7.78;;;;;;;15.58;100.00;101878.94;5093451;28;20375;-71
2022/07/19 04:01:59;;;;;;;12.02;7.50;;;;;;;15.58;100.00;101878.94;5092942;28;20385;-70
2022/07/19 04:04:25;;;;;;;11.77;8.27;;;;;;;15.58;100.00;101881.63;5093495;28;20416;-71
2022/07/19 04:06:50;;;;;;;9.18;7.25;;;;;;;15.56;100.00;101881.75;5093043;28;20355;-70
2022/07/19 04:09:16;;;;;;;9.80;7.10;;;;;;;15.57;100.00;101886.16;5093186;28;20153;-71
2022/07/19 04:11:41;;;;;;;9.02;6.00;;;;;;;15.57;100.00;101882.59;5093058;28;20123;-71
2022/07/19 04:14:06;;;;;;;9.20;6.68;;;;;;;15.59;99.73;101880.63;5093152;28;20054;-71
2022/07/19 04:16:32;;;;;;;10.68;6.72;;;;;;;15.62;100.00;101880.34;5092317;28;20051;-71
2022/07/19 04:18:57;;;;;;;9.15;6.30;;;;;;;15.63;100.00;101877.50;5092752;28;20035;-71
2022/07/19 04:21:23;;;;;;;12.60;8.45;;;;;;;15.66;100.00;101879.06;5093336;28;20071;-71
2022/07/19 04:23:48;;;;;;;13.25;8.63;;;;;;;15.70;100.00;101875.06;5092678;28;20052;-71
2022/07/19 04:26:14;;;;;;;12.15;7.57;;;;;;;15.71;100.00;101876.75;5092851;28;20059;-71
2022/07/19 04:28:39;;;;;;;13.43;8.10;;;;;;;15.74;100.00;101875.63;5092796;28;20051;-71
2022/07/19 04:31:05;;;;;;;10.95;6.95;;;;;;;15.78;100.00;101871.66;5093037;28;20032;-71
2022/07/19 04:33:30;;;;;;;12.43;7.55;;;;;;;15.80;100.00;101875.91;5093122;28;20024;-71
2022/07/19 04:35:55;;;;;;;11.27;8.25;;;;;;;15.84;99.90;101873.78;5092479;28;20040;-72
2022/07/19 04:38:21;;;;;;;11.10;7.70;;;;;;;15.88;100.00;101875.16;5091460;28;20155;-71
2022/07/19 04:40:47;;;;;;;11.60;7.70;;;;;;;15.94;100.00;101869.19;5092187;28;20040;-72
2022/07/19 04:43:13;;;;;;;12.75;8.10;;;;;;;16.02;100.00;101880.03;5092530;28;20032;-72
2022/07/19 04:45:41;;;;;;;13.02;7.68;;;;;;;16.06;100.00;101875.19;5092480;28;20055;-71
2022/07/19 04:48:07;;;;;;;10.27;6.28;;;;;;;16.13;100.00;101868.25;5091995;28;20393;-70
2022/07/19 04:50:32;;;;;;;9.68;7.63;;;;;;;16.19;99.89;101869.47;5092421;28;20020;-72
2022/07/19 04:52:58;;;;;;;10.23;7.15;;;;;;;16.25;99.46;101873.41;5091893;28;20426;-72
2022/07/19 04:55:23;;;;;;;9.00;6.38;;;;;;;16.32;99.74;101875.34;5092391;28;20032;-72
2022/07/19 04:57:48;;;;;;;10.27;6.68;;;;;;;16.39;99.63;101878.25;5091824;28;20040;-72
2022/07/19 05:00:14;;;;;;;11.13;7.30;;;;;;;16.47;99.43;101878.34;5092108;28;20111;-71
2022/07/19 05:02:39;;;;;;;14.13;7.72;;;;;;;16.54;99.60;101876.72;5092595;28;20032;-71
2022/07/19 05:05:05;;;;;;;10.18;7.80;;;;;;;16.61;99.56;101873.44;5091975;28;20043;-72
2022/07/19 05:07:31;;;;;;;12.13;8.20;;;;;;;16.68;99.36;101877.19;5092066;28;20039;-72
2022/07/19 05:09:56;;;;;;;19.88;9.38;;;;;;;16.73;99.36;101874.88;5091837;28;20052;-71
2022/07/19 05:12:22;;;;;;;14.80;9.95;;;;;;;16.81;99.22;101866.91;5092105;28;20482;-71
2022/07/19 05:14:47;;;;;;;15.10;9.45;;;;;;;16.87;98.78;101877.06;5091491;28;20029;-71
2022/07/19 05:17:13;;;;;;;15.15;9.23;;;;;;;16.97;98.68;101876.13;5090715;28;20036;-71
2022/07/19 05:19:38;;;;;;;15.15;10.27;;;;;;;17.04;97.99;101866.44;5091841;28;20048;-70
2022/07/19 05:22:04;;;;;;;14.88;9.93;;;;;;;17.12;97.75;101869.16;5091735;28;20485;-69
2022/07/19 05:24:29;;;;;;;15.70;9.57;;;;;;;17.21;97.23;101875.44;5092157;28;20039;-70
2022/07/19 05:26:54;;;;;;;15.70;9.07;;;;;;;17.30;97.20;101870.97;5092278;28;20032;-70
2022/07/19 05:29:20;;;;;;;19.02;9.98;;;;;;;17.38;97.15;101879.09;5091656;28;20433;-80
2022/07/19 05:31:45;;;;;;;15.52;9.60;;;;;;;17.46;96.87;101868.38;5093137;28;20077;-78
2022/07/19 05:34:11;;;;;;;15.43;10.15;;;;;;;17.53;96.43;101866.75;5090928;28;20108;-82
2022/07/19 05:36:36;;;;;;;14.43;9.05;;;;;;;17.62;96.13;101878.41;5092900;28;20028;-77
2022/07/19 05:39:02;;;;;;;12.82;8.98;;;;;;;17.72;95.60;101879.13;5092670;28;20040;-80
2022/07/19 05:41:28;;;;;;;16.63;10.05;;;;;;;17.82;95.58;101872.75;5092774;28;20028;-81
2022/07/19 05:43:53;;;;;;;18.58;10.43;;;;;;;17.91;96.05;101869.97;5092256;28;20482;-85
2022/07/19 05:46:19;;;;;;;23.70;9.80;;;;;;;18.03;95.44;101869.69;5092942;28;20059;-83
2022/07/19 05:48:44;;;;;;;13.20;9.50;;;;;;;18.14;94.56;101861.31;5091459;28;20085;-81
2022/07/19 05:51:10;;;;;;;15.63;10.48;;;;;;;18.26;93.43;101868.06;5091621;28;20247;-79
2022/07/19 05:53:36;;;;;;;14.85;10.20;;;;;;;18.39;92.58;101872.13;5090124;28;20089;-78
2022/07/19 05:56:03;;;;;;;16.10;9.02;;;;;;;18.52;92.15;101863.56;5090887;28;20032;-76
2022/07/19 05:58:28;;;;;;;17.38;10.18;;;;;;;18.64;91.25;101864.91;5091293;28;20107;-78
2022/07/19 06:03:37;;;;;;;15.13;11.50;;;;;;;19.00;90.30;101870.84;5091941;28;20439;-86
2022/07/19 06:06:03;;;;;;;25.88;18.05;;;;;;;19.19;89.68;101869.63;5090706;28;20028;-80
2022/07/19 06:08:28;;;;;;;24.33;13.15;;;;;;;19.41;88.98;101872.63;5091228;28;20067;-79
2022/07/19 06:10:54;;;;;;;16.00;11.32;;;;;;;19.64;88.62;101866.50;5090414;28;20447;-83
2022/07/19 06:13:19;;;;;;;17.33;9.70;;;;;;;19.88;88.52;101868.28;5089678;28;20057;-77
2022/07/19 06:15:45;;;;;;;18.42;10.15;;;;;;;20.15;88.81;101869.66;5089741;28;20142;-79
2022/07/19 06:18:10;;;;;;;14.43;10.35;;;;;;;20.41;87.83;101863.94;5090506;28;20024;-80
2022/07/19 06:20:35;;;;;;;21.55;9.70;;;;;;;20.64;85.25;101860.38;5091236;28;20448;-80
2022/07/19 06:23:01;;;;;;;26.52;10.30;;;;;;;20.89;82.99;101857.50;5090553;28;20417;-80
2022/07/19 06:25:26;;;;;;;13.65;9.40;;;;;;;21.16;81.29;101866.06;5091211;28;20048;-83
2022/07/19 06:27:52;;;;;;;20.85;9.73;;;;;;;21.39;78.25;101869.53;5090992;28;20118;-80
2022/07/19 06:30:17;;;;;;;21.77;9.85;;;;;;;21.62;77.90;101855.91;5072586;28;20492;-82
2022/07/19 06:32:43;;;;;;;23.98;10.02;;;;;;;21.84;76.53;101859.53;5091521;28;20040;-81
2022/07/19 06:35:08;;;;;;;20.00;9.98;;;;;;;22.09;77.43;101864.63;5092100;28;20028;-81
2022/07/19 06:37:34;;;;;;;16.15;8.55;;;;;;;22.36;76.73;101862.22;5090477;28;20040;-81
2022/07/19 06:39:59;;;;;;;20.98;8.65;;;;;;;22.63;74.11;101867.91;5093264;28;20116;-82
2022/07/19 06:42:24;;;;;;;20.67;8.60;;;;;;;22.89;72.06;101868.16;5094512;28;20053;-81
2022/07/19 06:44:52;;;;;;;17.15;8.20;;;;;;;23.11;70.55;101853.72;5077853;28;20039;-80
2022/07/19 06:47:17;;;;;;;16.90;7.65;;;;;;;23.35;68.24;101861.41;5094128;28;20177;-81
2022/07/19 06:49:43;;;;;;;21.60;8.02;;;;;;;23.56;67.57;101863.22;5094557;28;20474;-82
2022/07/19 06:52:08;;;;;;;16.67;7.65;;;;;;;23.78;66.15;101863.09;5095405;28;20039;-79
2022/07/19 06:54:33;;;;;;;12.93;7.25;;;;;;;23.88;61.88;101854.59;5095725;28;20028;-77
2022/07/19 06:56:59;;;;;;;16.83;7.30;;;;;;;24.07;60.05;101850.28;5095693;28;20043;-84
2022/07/19 06:59:25;;;;;;;15.35;7.57;;;;;;;24.27;59.66;101845.75;5095982;28;20111;-84
2022/07/19 07:01:50;;;;;;;14.88;6.28;;;;;;;24.46;60.32;101841.34;5095810;28;20103;-85
2022/07/19 07:04:15;;;;;;;14.43;6.82;;;;;;;24.52;57.53;101847.03;5095393;28;20040;-85
2022/07/19 07:06:41;;;;;;;17.80;7.05;;;;;;;24.67;59.15;101850.41;5095637;28;20085;-85
2022/07/19 07:09:06;;;;;;;18.92;6.25;;;;;;;24.85;60.70;101847.06;5093714;28;20048;-85
2022/07/19 07:11:32;;;;;;;12.68;5.70;;;;;;;24.98;59.82;101847.06;5094622;28;20393;-85
2022/07/19 07:13:57;;;;;;;16.00;7.22;;;;;;;25.10;57.68;101841.81;5095087;28;20067;-84
2022/07/19 07:16:22;;;;;;;17.45;7.07;;;;;;;25.27;56.96;101844.91;5095287;28;20101;-72
2022/07/19 07:18:48;;;;;;;18.92;6.45;;;;;;;25.47;57.60;101838.63;5095665;28;20040;-72
2022/07/19 07:21:13;;;;;;;22.83;7.53;;;;;;;25.63;57.55;101835.41;5095192;28;20109;-72
2022/07/19 07:23:39;;;;;;;14.15;7.20;;;;;;;25.80;56.93;101824.03;5095533;28;20107;-71
2022/07/19 07:26:05;;;;;;;19.38;6.20;;;;;;;26.01;54.67;101823.72;5095017;28;20469;-72
2022/07/19 07:28:30;;;;;;;17.48;6.72;;;;;;;26.14;52.71;101821.97;5095680;28;20081;-72
2022/07/19 07:30:55;;;;;;;13.77;5.75;;;;;;;26.28;53.46;101822.72;5095534;28;20093;-72
2022/07/19 07:33:21;;;;;;;12.23;5.50;;;;;;;26.46;53.01;101830.16;5093810;28;20418;-72
2022/07/19 07:35:46;;;;;;;19.98;6.38;;;;;;;26.62;50.77;101824.16;5095530;28;20082;-72
2022/07/19 07:38:12;;;;;;;15.40;5.07;;;;;;;26.88;52.00;101825.00;5093654;28;20114;-72
2022/07/19 07:40:37;;;;;;;9.68;5.05;;;;;;;27.18;50.46;101821.53;5095133;28;20378;-72
2022/07/19 07:43:03;;;;;;;17.58;5.38;;;;;;;27.48;48.76;101829.84;5094061;28;20031;-72
2022/07/19 07:45:29;;;;;;;13.13;4.80;;;;;;;27.72;47.53;101822.63;5095057;28;20028;-72
2022/07/19 07:47:54;;;;;;;12.90;5.45;;;;;;;27.88;44.79;101828.50;5094993;28;20035;-72
2022/07/19 07:50:20;;;;;;;12.32;5.90;;;;;;;27.94;43.88;101822.13;5094513;28;20043;-72
2022/07/19 07:52:45;;;;;;;15.55;4.20;;;;;;;28.03;46.89;101826.22;5094999;28;20078;-72
2022/07/19 07:55:11;;;;;;;13.00;4.40;;;;;;;28.18;46.20;101827.69;5094294;28;20032;-72
2022/07/19 07:57:36;;;;;;;15.57;5.30;;;;;;;28.33;44.73;101830.81;5095087;28;20066;-72
2022/07/19 08:00:04;;;;;;;16.27;4.90;;;;;;;28.45;43.92;101823.47;5095610;28;20043;-72
2022/07/19 08:02:29;;;;;;;13.52;5.45;;;;;;;28.61;43.20;101821.16;5094511;28;20036;-72
2022/07/19 08:04:54;;;;;;;12.38;4.88;;;;;;;28.78;43.01;101824.00;5094870;28;20032;-72
2022/07/19 08:07:20;;;;;;;9.50;5.28;;;;;;;28.95;41.22;101818.69;5094287;28;20110;-72
2022/07/19 08:09:45;;;;;;;10.30;4.80;;;;;;;29.13;42.36;101815.78;5094710;28;20497;-72
2022/07/19 08:12:11;;;;;;;9.30;4.85;;;;;;;29.31;41.42;101814.00;5094183;28;20036;-72
2022/07/19 08:14:36;;;;;;;14.43;5.07;;;;;;;29.43;41.70;101805.75;5093221;28;20119;-72
2022/07/19 08:17:01;;;;;;;15.18;4.82;;;;;;;29.53;40.07;101809.53;5094571;28;20074;-72
2022/07/19 08:19:27;;;;;;;10.70;4.85;;;;;;;29.67;41.16;101804.59;5094023;28;20374;-72
2022/07/19 08:21:52;;;;;;;15.88;4.90;;;;;;;29.78;39.89;101800.13;5094385;28;20059;-72
2022/07/19 08:24:18;;;;;;;15.52;5.10;;;;;;;29.86;39.37;101797.03;5094043;28;20036;-72
2022/07/19 08:26:43;;;;;;;13.88;5.07;;;;;;;30.02;39.48;101795.41;5093472;28;20118;-72
2022/07/19 08:29:09;;;;;;;13.90;5.05;;;;;;;30.17;39.92;101800.34;5094461;28;20028;-72
2022/07/19 08:31:34;;;;;;;13.18;5.20;;;;;;;30.39;39.51;101794.09;5093684;28;20028;-72
2022/07/19 08:33:59;;;;;;;10.90;5.22;;;;;;;30.65;38.57;101797.28;5094353;28;20074;-72
2022/07/19 08:36:25;;;;;;;12.15;4.53;;;;;;;30.92;40.31;101801.00;5093674;28;20488;-72
2022/07/19 08:38:50;;;;;;;14.23;5.78;;;;;;;31.09;36.79;101795.47;5094090;28;20055;-72
2022/07/19 08:41:16;;;;;;;12.02;4.80;;;;;;;31.27;35.29;101793.50;5093438;28;20036;-72
2022/07/19 08:43:42;;;;;;;8.75;4.30;;;;;;;31.71;37.23;101795.41;5094029;28;20039;-72
2022/07/19 08:46:07;;;;;;;14.50;4.57;;;;;;;32.00;33.71;101791.31;5093823;28;20406;-72
2022/07/19 08:48:35;;;;;;;12.27;3.92;;;;;;;32.33;34.74;101789.44;5093584;28;20534;-72
2022/07/19 08:51:01;;;;;;;13.70;4.47;;;;;;;32.90;33.79;101784.31;5093770;28;20036;-72
2022/07/19 08:53:32;;;;;;;10.32;4.22;;;;;;;33.09;31.81;101790.22;5093839;28;20540;-72
2022/07/19 08:55:59;;;;;;;12.02;4.25;;;;;;;33.65;31.59;101777.75;5094375;28;20082;-72
2022/07/19 08:58:25;;;;;;;16.40;4.32;;;;;;;34.21;31.38;101788.88;5093621;28;20499;-72
2022/07/19 09:00:50;;;;;;;9.77;4.10;;;;;;;34.62;28.84;101782.50;5093727;28;20028;-72
2022/07/19 09:03:16;;;;;;;10.88;3.70;;;;;;;35.23;29.61;101791.75;5093001;28;20035;-72
2022/07/19 09:05:41;;;;;;;13.15;3.60;;;;;;;35.64;27.38;101784.09;5093601;28;20030;-72
2022/07/19 09:08:14;;;;;;;9.77;3.45;;;;;;;36.12;28.05;101780.72;5093558;28;20077;-72
2022/07/19 09:11:14;;;;;;;7.55;3.50;;;;;;;36.41;26.79;101784.66;5093445;28;20058;-71
2022/07/19 09:13:35;;;;;;;5.68;3.22;;;;;;;36.84;26.49;101780.06;5092901;28;20075;-72
2022/07/19 09:16:01;;;;;;;8.52;3.70;;;;;;;37.05;24.93;101777.06;5093717;28;20087;-71
2022/07/19 09:18:29;;;;;;;8.95;3.30;;;;;;;37.11;24.05;101764.75;5092695;28;20032;-72
2022/07/19 09:21:00;;;;;;;15.70;3.65;;;;;;;37.64;23.73;101777.66;5093197;28;20036;-72
2022/07/19 09:23:25;;;;;;;6.68;3.30;;;;;;;38.00;24.03;101767.97;5093141;28;20127;-73
2022/07/19 09:25:54;;;;;;;11.00;3.03;;;;;;;38.65;25.64;101763.50;5093289;28;20036;-71
2022/07/19 09:28:21;;;;;;;12.95;3.22;;;;;;;39.18;23.28;101763.00;5092658;28;20032;-71
2022/07/19 09:30:57;;;;;;;11.30;3.00;;;;;;;39.73;22.17;101764.81;5092554;28;20101;-70
2022/07/19 09:33:25;;;;;;;9.75;2.70;;;;;;;40.14;22.06;101757.41;5089516;28;20023;-71
2022/07/19 09:35:53;;;;;;;7.35;2.90;;;;;;;40.20;19.86;101753.34;5089626;28;20031;-71
2022/07/19 09:38:23;;;;;;;10.05;3.13;;;;;;;40.10;21.02;101753.63;5088895;28;20427;-74
2022/07/19 09:40:52;;;;;;;5.38;3.10;;;;;;;40.60;21.73;101747.81;5090086;28;20035;-70
2022/07/19 09:43:19;;;;;;;7.10;2.85;;;;;;;40.66;21.84;101751.28;5089939;28;20171;-71
2022/07/19 09:45:44;;;;;;;10.20;2.95;;;;;;;40.49;20.77;101752.03;5089385;28;20054;-72
2022/07/19 09:48:10;;;;;;;12.45;2.97;;;;;;;40.34;21.69;101744.88;5089524;28;20487;-70
2022/07/19 09:50:35;;;;;;;5.15;2.67;;;;;;;40.93;20.63;101746.63;5089249;28;20036;-71
2022/07/19 09:53:03;;;;;;;13.40;3.28;;;;;;;41.34;21.24;101749.03;5089441;28;20413;-71
2022/07/19 09:55:29;;;;;;;15.80;2.80;;;;;;;41.42;20.07;101747.38;5089001;28;20068;-71
2022/07/19 09:57:57;;;;;;;19.05;3.17;;;;;;;41.36;19.79;101741.13;5089297;28;20555;-71
2022/07/19 10:00:24;;;;;;;9.40;2.72;;;;;;;41.14;20.45;101739.28;5088494;28;20028;-70
2022/07/19 10:02:58;;;;;;;11.07;3.05;;;;;;;40.82;20.10;101734.94;5089287;28;20077;-71
2022/07/19 10:05:25;;;;;;;8.30;3.20;;;;;;;41.19;19.12;101730.75;5088754;28;20089;-71
2022/07/19 10:07:51;;;;;;;5.53;2.65;;;;;;;41.66;18.95;101720.91;5086532;28;20078;-71
2022/07/19 10:10:18;;;;;;;8.82;2.97;;;;;;;41.66;19.24;101724.53;5088964;28;20060;-71
2022/07/19 10:12:45;;;;;;;7.32;2.50;;;;;;;41.85;19.59;101720.56;5087633;28;20032;-71
2022/07/19 10:15:14;;;;;;;11.48;3.10;;;;;;;42.29;19.38;101722.09;5085921;28;20028;-71
2022/07/19 10:17:54;;;;;;;9.50;2.97;;;;;;;41.98;18.16;101715.94;5088620;28;20020;-71
2022/07/19 10:20:20;;;;;;;;;;;;;;;41.84;19.71;101708.59;5088152;28;20081;-71
2022/07/19 10:22:46;;;;;;;9.43;3.00;;;;;;;41.91;18.41;101702.50;5088754;28;19920;-71
2022/07/19 10:25:17;;;;;;;9.18;2.92;;;;;;;41.97;17.97;101706.75;5088542;28;20028;-71
2022/07/19 10:27:44;;;;;;;7.90;2.63;;;;;;;41.90;18.49;101701.66;5088016;28;20031;-71
2022/07/19 10:30:09;;;;;;;9.35;2.72;;;;;;;41.95;18.96;101700.66;5087182;28;20024;-71
2022/07/19 10:32:35;;;;;;;5.47;2.60;;;;;;;42.01;17.77;101696.56;5087810;28;20451;-70
2022/07/19 10:35:18;;;;;;;6.32;2.67;;;;;;;42.14;18.32;101699.47;5089640;28;20060;-71
2022/07/19 10:37:49;;;;;;;6.30;2.20;;;;;;;42.02;18.16;101695.38;5089384;28;20028;-70
2022/07/19 10:40:40;;;;;;;9.07;2.80;;;;;;;41.69;17.04;101703.50;5091637;28;20040;-70
2022/07/19 10:43:07;;;;;;;10.27;2.50;;;;;;;41.96;18.51;101696.72;5092112;28;20566;-71
2022/07/19 10:45:33;;;;;;;7.50;2.67;;;;;;;42.27;18.51;101699.25;5091112;28;20036;-71
2022/07/19 10:48:05;;;;;;;13.43;2.50;;;;;;;42.20;19.31;101695.34;5091643;28;20032;-70
2022/07/19 10:50:48;;;;;;;9.85;2.65;;;;;;;42.56;19.15;101691.22;5091082;28;20115;-71
2022/07/19 10:53:41;;;;;;;10.27;2.55;;;;;;;42.59;18.15;101683.00;5091840;28;20068;-70
2022/07/19 10:56:19;;;;;;;10.65;2.47;;;;;;;42.89;18.65;101682.16;5091635;28;20134;-70
2022/07/19 10:58:52;;;;;;;14.67;2.70;;;;;;;43.24;17.69;101679.13;5091226;28;20036;-71
2022/07/19 11:01:19;;;;;;;15.25;2.88;;;;;;;42.88;16.95;101678.53;5091705;28;20028;-70
2022/07/19 11:03:49;;;;;;;9.50;2.72;;;;;;;43.08;17.49;101662.94;5091145;28;20028;-70
2022/07/19 11:06:20;;;;;;;9.88;2.50;;;;;;;42.62;18.64;101671.16;5091698;28;20054;-70
2022/07/19 11:08:46;;;;;;;5.78;2.58;;;;;;;42.71;17.93;101665.47;5091029;28;20039;-71
2022/07/19 11:11:17;;;;;;;10.73;2.67;;;;;;;42.87;18.32;101671.31;5091279;28;20048;-71
2022/07/19 11:13:48;;;;;;;14.02;2.60;;;;;;;43.03;18.49;101665.94;5091010;28;20024;-71
2022/07/19 11:16:14;;;;;;;7.40;2.60;;;;;;;43.36;18.76;101658.72;5091483;28;20086;-71
2022/07/19 11:18:41;;;;;;;12.38;2.67;;;;;;;42.84;18.84;101660.78;5090209;28;20078;-71